Time;durP1;ratioP1;P1;durP2;ratioP2;P2;SDS_P1;SDS_P2;PMS_P1;PMS_P2;Temp;Humidity;BMP_temperature;BMP_pressure;BME280_temperature;BME280_humidity;BME280_pressure;Samples;Min_cycle;Max_cycle;Signal;HPM_P1;HPM_P2
2021/10/01 00:00:57;;;;;;;31.12;20.45;;;;;;;3.58;74.11;101184.08;1719748;82;21039;-69
2021/10/01 00:03:23;;;;;;;29.92;20.88;;;;;;;3.57;74.06;101187.78;1739920;82;21655;-68
2021/10/01 00:05:51;;;;;;;29.18;20.30;;;;;;;3.50;74.14;101185.86;1752802;82;21038;-69
2021/10/01 00:08:17;;;;;;;28.17;20.10;;;;;;;3.44;74.23;101186.61;1741408;82;21015;-68
2021/10/01 00:10:45;;;;;;;29.20;20.35;;;;;;;3.38;74.31;101181.98;1744956;82;21498;-68
2021/10/01 00:13:11;;;;;;;30.52;21.57;;;;;;;3.33;74.33;101186.28;1748300;82;21062;-68
2021/10/01 00:15:37;;;;;;;33.58;21.25;;;;;;;3.35;74.22;101187.76;1742224;82;21545;-68
2021/10/01 00:18:04;;;;;;;32.83;20.52;;;;;;;3.39;74.16;101182.83;1718428;82;21020;-68
2021/10/01 00:20:30;;;;;;;29.95;20.12;;;;;;;3.42;74.01;101182.45;1733416;82;21548;-69
2021/10/01 00:23:52;;;;;;;31.23;20.77;;;;;;;3.43;74.00;101173.35;1778474;79;23449;-69
2021/10/01 00:26:19;;;;;;;;;;;;;;;3.30;74.04;101172.67;1746970;82;21054;-69
2021/10/01 00:28:45;;;;;;;29.92;20.08;;;;;;;3.27;74.00;101178.95;1752859;81;20468;-69
2021/10/01 00:31:12;;;;;;;34.13;22.13;;;;;;;3.15;74.10;101177.28;1743243;82;21066;-69
2021/10/01 00:33:39;;;;;;;33.45;22.50;;;;;;;3.10;74.34;101181.03;1711370;83;21015;-68
2021/10/01 00:36:05;;;;;;;31.35;21.33;;;;;;;3.08;74.52;101174.18;1696292;83;21018;-69
2021/10/01 00:38:33;;;;;;;34.88;22.25;;;;;;;3.08;74.48;101175.53;1730960;82;21051;-69
2021/10/01 00:40:59;;;;;;;31.30;20.72;;;;;;;3.10;74.33;101177.50;1726962;82;21042;-69
2021/10/01 00:43:26;;;;;;;34.83;21.62;;;;;;;3.08;74.25;101169.64;1752257;82;21047;-69
2021/10/01 00:45:52;;;;;;;34.80;22.07;;;;;;;3.04;74.30;101173.72;1744326;82;21432;-69
2021/10/01 00:48:18;;;;;;;30.90;21.93;;;;;;;2.99;74.40;101167.55;1722999;82;21082;-69
2021/10/01 00:50:45;;;;;;;34.23;23.62;;;;;;;2.94;74.62;101161.08;1741605;82;20979;-69
2021/10/01 00:53:12;;;;;;;33.75;23.57;;;;;;;2.95;74.54;101158.69;1711410;82;21027;-69
2021/10/01 00:55:39;;;;;;;36.30;23.07;;;;;;;3.00;74.32;101161.66;1751276;81;20983;-69
2021/10/01 00:58:05;;;;;;;32.08;21.20;;;;;;;3.03;74.21;101161.28;1748849;82;21050;-69
2021/10/01 01:00:31;;;;;;;;;;;;;;;2.99;74.40;101158.64;1728352;82;20971;-69
2021/10/01 01:03:00;;;;;;;31.48;20.23;;;;;;;2.91;74.67;101162.77;1702796;82;20111;-69
2021/10/01 01:05:45;;;;;;;34.85;22.20;;;;;;;2.80;74.87;101161.94;1749471;82;21430;-69
2021/10/01 01:08:11;;;;;;;34.65;22.93;;;;;;;2.76;74.93;101157.44;1710629;82;21059;-68
2021/10/01 01:10:46;;;;;;;33.80;23.22;;;;;;;2.80;74.81;101156.55;1734386;81;21007;-69
2021/10/01 01:13:36;;;;;;;34.25;22.05;;;;;;;2.82;74.91;101160.72;1746745;82;21499;-69
2021/10/01 01:16:08;;;;;;;34.98;21.73;;;;;;;2.83;75.00;101155.67;1732433;81;21514;-69
2021/10/01 01:18:42;;;;;;;30.82;20.80;;;;;;;2.80;75.08;101157.36;1734737;82;21162;-69
2021/10/01 01:21:10;;;;;;;34.25;22.50;;;;;;;2.76;75.33;101156.59;1739752;82;20959;-69
2021/10/01 01:24:15;;;;;;;34.78;23.22;;;;;;;2.71;75.50;101150.93;1708361;82;21106;-69
2021/10/01 01:27:15;;;;;;;32.95;22.13;;;;;;;2.67;75.43;101149.63;1744738;81;21015;-69
2021/10/01 01:30:06;;;;;;;36.73;22.90;;;;;;;2.69;75.43;101158.36;1739606;81;21129;-67
2021/10/01 01:32:39;;;;;;;34.05;22.42;;;;;;;2.70;75.58;101150.59;1744307;81;21014;-67
2021/10/01 01:35:13;;;;;;;33.70;23.10;;;;;;;2.70;75.62;101155.97;1748736;81;20982;-68
2021/10/01 01:37:51;;;;;;;33.53;21.55;;;;;;;2.68;75.53;101156.18;1680664;84;21026;-68
2021/10/01 01:40:21;;;;;;;34.40;21.50;;;;;;;2.64;75.64;101154.88;1673082;84;21010;-68
2021/10/01 01:42:47;;;;;;;35.80;22.85;;;;;;;2.60;75.94;101155.42;1678530;83;21038;-67
2021/10/01 01:45:17;;;;;;;36.55;22.93;;;;;;;2.55;76.04;101152.48;1697693;83;20962;-68
2021/10/01 01:47:44;;;;;;;34.45;23.10;;;;;;;2.55;76.00;101155.97;1665096;84;21046;-68
2021/10/01 01:50:10;;;;;;;34.83;22.48;;;;;;;2.59;75.86;101152.44;1685582;84;21007;-68
2021/10/01 01:52:37;;;;;;;34.10;21.50;;;;;;;2.62;75.62;101161.47;1680421;84;21577;-68
2021/10/01 01:55:05;;;;;;;33.78;21.50;;;;;;;2.61;75.48;101162.48;1616700;84;21007;-68
2021/10/01 01:57:34;;;;;;;33.45;22.58;;;;;;;2.57;75.69;101162.52;1701779;84;21613;-68
2021/10/01 02:00:01;;;;;;;33.60;22.32;;;;;;;2.49;75.77;101151.34;1690910;84;21078;-67
2021/10/01 02:02:29;;;;;;;35.75;22.67;;;;;;;2.45;75.87;101162.98;1678676;84;21074;-67
2021/10/01 02:04:55;;;;;;;36.17;23.05;;;;;;;2.45;76.03;101167.52;1679881;84;21042;-68
2021/10/01 02:07:22;;;;;;;33.83;21.33;;;;;;;2.47;76.07;101159.61;1676994;84;21561;-68
2021/10/01 02:09:50;;;;;;;34.70;21.30;;;;;;;2.48;75.83;101163.95;1670145;84;21019;-67
2021/10/01 02:12:17;;;;;;;32.10;21.27;;;;;;;2.47;75.73;101165.50;1696624;84;21041;-67
2021/10/01 02:14:50;;;;;;;37.05;23.42;;;;;;;2.43;75.74;101173.09;1695500;84;21707;-68
2021/10/01 02:17:19;;;;;;;35.85;23.70;;;;;;;2.38;75.73;101174.64;1709020;83;21090;-68
2021/10/01 02:19:46;;;;;;;33.90;22.95;;;;;;;2.36;75.70;101174.84;1711114;83;20982;-68
2021/10/01 02:22:16;;;;;;;32.70;22.10;;;;;;;2.40;75.75;101181.53;1702095;83;21446;-68
2021/10/01 02:24:43;;;;;;;31.70;21.93;;;;;;;2.40;75.90;101175.31;1686405;84;21514;-68
2021/10/01 02:27:23;;;;;;;37.03;22.02;;;;;;;2.37;76.03;101175.15;1667794;84;21031;-68
2021/10/01 02:30:01;;;;;;;37.10;22.75;;;;;;;2.31;76.14;101170.52;1672014;84;21056;-68
2021/10/01 02:32:38;;;;;;;32.98;22.00;;;;;;;2.24;76.30;101174.11;1643330;84;21103;-68
2021/10/01 02:35:06;;;;;;;36.30;24.33;;;;;;;2.25;76.28;101178.48;1698757;84;21021;-68
2021/10/01 02:37:32;;;;;;;34.38;23.25;;;;;;;2.25;76.28;101178.48;1694741;84;21042;-68
2021/10/01 02:40:00;;;;;;;31.52;21.17;;;;;;;2.28;76.09;101179.45;1691395;82;21538;-68
2021/10/01 02:42:27;;;;;;;36.73;21.85;;;;;;;2.27;76.08;101177.78;1723416;82;21040;-68
2021/10/01 02:44:55;;;;;;;32.55;22.85;;;;;;;2.23;76.21;101179.19;1709844;82;21587;-68
2021/10/01 02:47:26;;;;;;;33.55;23.07;;;;;;;2.19;76.42;101172.50;1729700;82;20967;-68
2021/10/01 02:49:53;;;;;;;35.60;23.83;;;;;;;2.18;76.57;101174.34;1730883;82;21031;-68
2021/10/01 02:52:42;;;;;;;31.97;22.65;;;;;;;2.20;76.67;101172.80;1731334;82;21477;-68
2021/10/01 02:56:05;;;;;;;34.08;21.35;;;;;;;2.23;76.75;101170.59;1727293;82;20980;-68
2021/10/01 02:58:48;;;;;;;33.35;21.68;;;;;;;2.18;76.85;101179.72;1738811;82;21465;-68
2021/10/01 03:01:15;;;;;;;34.58;22.80;;;;;;;2.11;77.00;101173.91;1711147;82;20988;-67
2021/10/01 03:03:46;;;;;;;;;;;;;;;2.07;76.95;101177.47;1736723;82;21059;-68
2021/10/01 03:06:13;;;;;;;31.82;21.82;;;;;;;2.08;76.92;101177.81;1727998;82;20143;-69
2021/10/01 03:08:41;;;;;;;32.08;20.97;;;;;;;2.07;76.99;101179.32;1722928;82;21036;-69
2021/10/01 03:11:10;;;;;;;31.85;21.45;;;;;;;2.07;77.19;101176.63;1732680;82;20944;-68
2021/10/01 03:13:36;;;;;;;32.48;21.27;;;;;;;2.09;77.23;101179.98;1721901;82;21063;-68
2021/10/01 03:16:03;;;;;;;29.67;20.68;;;;;;;2.09;77.18;101173.27;1709995;82;20996;-68
2021/10/01 03:18:30;;;;;;;32.45;21.87;;;;;;;2.08;77.21;101179.66;1723099;82;21082;-68
2021/10/01 03:20:56;;;;;;;34.90;23.40;;;;;;;2.05;77.20;101174.15;1724452;82;21621;-69
2021/10/01 03:23:23;;;;;;;35.70;22.95;;;;;;;2.07;77.08;101170.76;1720025;82;21063;-68
2021/10/01 03:25:49;;;;;;;35.10;22.98;;;;;;;2.14;76.84;101172.20;1720114;82;21063;-68
2021/10/01 03:28:17;;;;;;;30.43;19.98;;;;;;;2.17;76.82;101169.98;1742784;82;21075;-68
2021/10/01 03:30:47;;;;;;;29.98;20.10;;;;;;;2.16;76.91;101181.73;1747277;82;21070;-68
2021/10/01 03:33:14;;;;;;;30.30;21.20;;;;;;;2.12;77.16;101188.52;1735063;82;21015;-68
2021/10/01 03:35:42;;;;;;;32.45;22.13;;;;;;;2.09;77.39;101186.70;1698569;82;21003;-68
2021/10/01 03:38:10;;;;;;;33.15;22.30;;;;;;;2.07;77.60;101186.03;1739821;82;21026;-68
2021/10/01 03:40:37;;;;;;;33.35;21.97;;;;;;;2.08;77.70;101189.05;1746898;82;21011;-68
2021/10/01 03:43:06;;;;;;;31.42;21.65;;;;;;;2.14;77.64;101189.66;1710863;82;21133;-68
2021/10/01 03:45:34;;;;;;;31.05;20.20;;;;;;;2.17;77.58;101191.48;1718750;82;21059;-68
2021/10/01 03:48:03;;;;;;;31.68;21.35;;;;;;;2.17;77.64;101193.33;1719366;82;20995;-68
2021/10/01 03:50:33;;;;;;;31.50;20.70;;;;;;;2.11;77.87;101196.24;1689305;83;21016;-68
2021/10/01 03:53:00;;;;;;;29.70;21.85;;;;;;;2.08;78.03;101194.43;1717616;82;21054;-68
2021/10/01 03:55:27;;;;;;;30.62;21.00;;;;;;;2.09;77.93;101188.86;1693040;82;21007;-69
2021/10/01 03:57:53;;;;;;;35.80;20.55;;;;;;;2.14;77.60;101193.19;1717679;82;21051;-68
2021/10/01 04:00:21;;;;;;;27.90;20.35;;;;;;;2.18;77.33;101199.87;1709015;82;21533;-68
2021/10/01 04:02:47;;;;;;;29.00;19.87;;;;;;;2.17;77.29;101194.67;1720136;82;21000;-68
2021/10/01 04:05:14;;;;;;;31.87;20.37;;;;;;;2.09;77.50;101191.55;1702723;83;21011;-69
2021/10/01 04:07:41;;;;;;;;;;;;;;;2.04;77.76;101197.98;1727120;82;21542;-69
2021/10/01 04:10:08;;;;;;;30.45;20.45;;;;;;;2.03;77.89;101196.30;1744948;82;20138;-69
2021/10/01 04:12:35;;;;;;;30.97;21.57;;;;;;;2.01;77.81;101195.66;1746635;82;20980;-68
2021/10/01 04:15:04;;;;;;;28.47;20.27;;;;;;;2.06;77.58;101198.63;1744876;82;20999;-68
2021/10/01 04:17:31;;;;;;;30.15;20.05;;;;;;;2.10;77.49;101201.28;1735120;82;20975;-68
2021/10/01 04:19:59;;;;;;;31.25;21.02;;;;;;;2.10;77.56;101195.91;1719436;82;21062;-68
2021/10/01 04:22:26;;;;;;;31.12;21.27;;;;;;;2.08;77.67;101206.52;1717666;82;21016;-68
2021/10/01 04:25:07;;;;;;;29.35;21.20;;;;;;;2.07;77.74;101204.84;1713130;83;21031;-68
2021/10/01 04:27:34;;;;;;;33.50;21.62;;;;;;;2.09;77.73;101205.51;1733125;82;20987;-69
2021/10/01 04:30:03;;;;;;;30.75;21.97;;;;;;;2.15;77.68;101206.12;1733390;82;21025;-68
2021/10/01 04:32:31;;;;;;;34.95;22.73;;;;;;;2.20;77.75;101201.02;1732975;82;21518;-68
2021/10/01 04:35:03;;;;;;;30.35;21.07;;;;;;;2.20;77.84;101205.89;1736333;82;21055;-68
2021/10/01 04:37:31;;;;;;;31.60;20.90;;;;;;;2.21;78.00;101208.91;1746131;82;21548;-69
2021/10/01 04:39:58;;;;;;;39.70;26.90;;;;;;;2.22;78.08;101213.27;1717434;83;21110;-69
2021/10/01 04:42:25;;;;;;;;;;;;;;;2.28;78.07;101209.02;1720204;82;21010;-68
2021/10/01 04:44:52;;;;;;;30.52;21.07;;;;;;;2.38;78.16;101214.45;1733080;82;20103;-69
2021/10/01 04:47:18;;;;;;;29.20;20.20;;;;;;;2.43;78.22;101213.91;1735117;82;20959;-68
2021/10/01 04:49:44;;;;;;;;;;;;;;;2.49;78.11;101218.05;1728623;82;20983;-68
2021/10/01 04:52:11;;;;;;;28.12;19.73;;;;;;;2.54;77.96;101220.19;1731137;82;20134;-68
2021/10/01 04:54:37;;;;;;;31.35;21.87;;;;;;;2.53;78.26;101219.02;1745095;82;21011;-68
2021/10/01 04:57:04;;;;;;;34.98;24.57;;;;;;;2.63;78.60;101222.27;1726295;82;21471;-68
2021/10/01 04:59:32;;;;;;;29.42;21.80;;;;;;;2.81;78.84;101228.12;1714737;83;21039;-69
2021/10/01 05:02:17;;;;;;;30.88;21.73;;;;;;;3.07;79.05;101225.81;1717580;83;21011;-69
2021/10/01 05:04:51;;;;;;;28.07;20.37;;;;;;;3.39;79.11;101229.42;1712341;82;21047;-71
2021/10/01 05:07:20;;;;;;;30.20;20.68;;;;;;;3.69;79.15;101230.67;1707107;82;20968;-69
2021/10/01 05:10:06;;;;;;;31.60;22.73;;;;;;;3.97;78.98;101223.50;1721701;82;21066;-69
2021/10/01 05:12:50;;;;;;;34.43;23.15;;;;;;;4.29;78.92;101231.56;1747311;82;21276;-68
2021/10/01 05:15:38;;;;;;;33.95;24.82;;;;;;;4.60;79.20;101237.95;1732326;82;21019;-68
2021/10/01 05:18:23;;;;;;;32.70;22.67;;;;;;;5.00;79.58;101243.91;1694167;84;21071;-68
2021/10/01 05:21:05;;;;;;;30.30;22.17;;;;;;;5.42;79.34;101235.59;1635505;82;21087;-68
2021/10/01 05:23:33;;;;;;;29.70;21.60;;;;;;;5.79;78.99;101229.38;1733204;82;21019;-68
2021/10/01 05:26:00;;;;;;;34.92;24.72;;;;;;;6.07;78.63;101237.35;1728655;82;20975;-69
2021/10/01 05:28:27;;;;;;;35.17;23.42;;;;;;;6.25;78.52;101233.53;1710908;82;21597;-68
2021/10/01 05:30:53;;;;;;;35.78;24.43;;;;;;;6.44;78.66;101230.01;1711328;82;21046;-69
2021/10/01 05:33:19;;;;;;;32.85;23.30;;;;;;;6.75;78.66;101230.70;1739486;82;21593;-66
2021/10/01 05:35:47;;;;;;;31.82;23.77;;;;;;;7.09;78.14;101240.40;1739283;82;21016;-67
2021/10/01 05:38:14;;;;;;;31.33;22.82;;;;;;;7.42;77.69;101236.55;1739277;82;21047;-67
2021/10/01 05:40:41;;;;;;;36.38;27.15;;;;;;;7.77;77.30;101238.88;1739339;82;20984;-67
2021/10/01 05:43:07;;;;;;;36.63;26.90;;;;;;;8.11;77.02;101243.89;1739290;82;21091;-67
2021/10/01 05:45:34;;;;;;;29.27;23.07;;;;;;;8.42;76.46;101238.47;1739526;81;20960;-67
2021/10/01 05:48:20;;;;;;;31.20;22.77;;;;;;;8.77;75.69;101242.02;1739125;82;21064;-66
2021/10/01 05:51:08;;;;;;;30.70;21.63;;;;;;;9.13;74.75;101245.31;1739598;82;21047;-67
2021/10/01 05:54:13;;;;;;;26.33;21.10;;;;;;;9.41;73.74;101245.08;1739428;82;21079;-67
2021/10/01 05:56:33;;;;;;;28.77;21.57;;;;;;;9.64;72.87;101253.04;1711490;82;21032;-67
2021/10/01 05:59:01;;;;;;;27.90;21.02;;;;;;;9.83;71.93;101251.44;1726136;82;21048;-67
2021/10/01 06:01:27;;;;;;;26.00;21.52;;;;;;;10.06;70.67;101257.47;1739187;82;21514;-67
2021/10/01 06:03:54;;;;;;;26.62;21.50;;;;;;;10.15;69.67;101254.77;1739205;82;21055;-67
2021/10/01 06:06:21;;;;;;;29.45;19.73;;;;;;;10.26;69.58;101259.95;1739235;82;21000;-67
2021/10/01 06:08:47;;;;;;;29.10;20.72;;;;;;;10.49;69.02;101255.38;1739311;82;21016;-67
2021/10/01 06:11:13;;;;;;;30.30;21.57;;;;;;;10.75;68.15;101250.02;1739377;82;21006;-67
2021/10/01 06:13:41;;;;;;;32.80;23.38;;;;;;;10.90;67.10;101252.28;1739108;82;21625;-67
2021/10/01 06:16:08;;;;;;;29.05;23.02;;;;;;;11.00;66.70;101257.95;1739075;82;21024;-67
2021/10/01 06:18:34;;;;;;;27.77;21.75;;;;;;;11.18;66.69;101256.99;1739377;82;21052;-67
2021/10/01 06:21:01;;;;;;;31.48;22.07;;;;;;;11.46;66.83;101260.62;1736402;82;21423;-68
2021/10/01 06:23:33;;;;;;;29.48;20.27;;;;;;;11.83;66.57;101250.77;1729178;82;21111;-67
2021/10/01 06:25:56;;;;;;;31.07;21.35;;;;;;;12.22;65.84;101258.02;1743930;82;20987;-67
2021/10/01 06:28:23;;;;;;;23.57;19.73;;;;;;;12.52;64.54;101258.27;1752048;82;21023;-67
2021/10/01 06:30:49;;;;;;;;;;;;;;;12.76;64.21;101261.12;1726078;83;20995;-67
2021/10/01 06:33:15;;;;;;;25.15;18.32;;;;;;;13.02;63.15;101256.34;1723455;83;20108;-67
2021/10/01 06:35:44;;;;;;;23.18;19.60;;;;;;;13.14;62.21;101259.02;1723213;83;21054;-68
2021/10/01 06:38:11;;;;;;;25.52;19.23;;;;;;;13.28;61.23;101255.66;1723423;83;21102;-67
2021/10/01 06:40:38;;;;;;;24.57;19.17;;;;;;;13.34;60.17;101256.02;1725623;82;21093;-67
2021/10/01 06:43:10;;;;;;;;;;;;;;;13.39;60.37;101260.73;1755900;82;21027;-67
2021/10/01 06:45:34;;;;;;;24.70;18.60;;;;;;;13.44;59.61;101264.88;1751922;82;20098;-67
2021/10/01 07:21:10;;;;;;;18.62;15.48;;;;;;;15.02;56.35;101274.42;1752876;81;21589;-68
2021/10/01 07:36:55;;;;;;;20.52;13.48;;;;;;;17.79;47.24;101264.37;1752608;82;21454;-67
2021/10/01 08:19:54;;;;;;;17.57;12.18;;;;;;;18.96;38.98;101243.69;1732980;82;21502;-66
2021/10/01 08:22:20;;;;;;;16.57;11.18;;;;;;;18.98;40.24;101242.86;1723397;82;21050;-66
2021/10/01 08:24:47;;;;;;;13.40;11.12;;;;;;;19.28;40.17;101247.22;1723266;83;21526;-66
2021/10/01 08:27:13;;;;;;;14.40;10.15;;;;;;;19.62;39.73;101252.11;1725403;82;20963;-67
2021/10/01 08:29:40;;;;;;;12.90;11.00;;;;;;;19.95;38.69;101237.83;1736166;81;21586;-66
2021/10/01 08:32:06;;;;;;;10.88;8.65;;;;;;;20.25;38.08;101238.78;1753292;82;21014;-66
2021/10/01 08:34:37;;;;;;;9.90;7.72;;;;;;;20.57;37.29;101238.58;1732965;82;21553;-67
2021/10/01 08:37:06;;;;;;;9.93;8.18;;;;;;;20.85;35.64;101236.98;1723448;83;21474;-67
2021/10/01 08:39:32;;;;;;;10.90;8.18;;;;;;;20.82;35.57;101236.77;1729289;82;21015;-67
2021/10/01 08:42:01;;;;;;;8.60;6.95;;;;;;;21.01;36.78;101234.73;1672805;85;21060;-67
2021/10/01 08:44:29;;;;;;;10.50;6.47;;;;;;;21.39;36.23;101228.52;1723117;83;21585;-67
2021/10/01 08:46:57;;;;;;;8.18;6.08;;;;;;;21.70;33.94;101228.69;1749406;82;21538;-66
2021/10/01 08:49:23;;;;;;;10.13;7.03;;;;;;;21.54;33.12;101229.56;1725791;82;21039;-66
2021/10/01 08:51:50;;;;;;;9.10;6.78;;;;;;;21.45;32.51;101228.66;1753514;82;21027;-67
2021/10/01 08:54:18;;;;;;;7.97;5.42;;;;;;;21.39;32.66;101223.53;1753403;82;21027;-67
2021/10/01 08:56:44;;;;;;;5.62;4.30;;;;;;;21.49;31.87;101219.16;1753367;82;21526;-67
2021/10/01 08:59:11;;;;;;;5.47;4.28;;;;;;;21.32;31.61;101222.56;1726756;82;21078;-67
2021/10/01 09:01:38;;;;;;;6.55;4.08;;;;;;;21.27;30.18;101224.86;1732687;80;20995;-66
2021/10/01 09:04:07;;;;;;;4.95;3.60;;;;;;;21.21;30.25;101221.94;1723139;83;21074;-66
2021/10/01 09:06:33;;;;;;;5.15;3.98;;;;;;;21.14;30.70;101220.70;1742931;82;21494;-66
2021/10/01 09:09:04;;;;;;;5.67;3.00;;;;;;;21.19;30.90;101228.34;1753332;82;21109;-66
2021/10/01 09:11:34;;;;;;;7.05;4.10;;;;;;;21.42;31.54;101226.51;1748446;82;21510;-65
2021/10/01 09:14:07;;;;;;;4.30;3.30;;;;;;;21.74;31.06;101223.61;1733022;82;21590;-65
2021/10/01 09:16:35;;;;;;;5.95;3.37;;;;;;;22.13;31.03;101227.75;1725189;82;21007;-67
2021/10/01 09:19:04;;;;;;;5.20;3.52;;;;;;;22.55;30.15;101217.56;1736539;82;21529;-66
2021/10/01 09:21:32;;;;;;;6.50;3.67;;;;;;;22.85;29.93;101222.91;1726973;82;21023;-66
2021/10/01 09:24:04;;;;;;;3.95;3.27;;;;;;;22.91;28.74;101215.28;1682804;85;21035;-66
2021/10/01 09:26:33;;;;;;;4.90;3.35;;;;;;;22.91;28.74;101215.28;1723617;82;21536;-66
2021/10/01 09:29:03;;;;;;;6.25;3.60;;;;;;;23.06;28.79;101218.45;1723400;83;21066;-66
2021/10/01 09:31:35;;;;;;;6.42;3.83;;;;;;;23.11;27.71;101225.83;1725602;82;21058;-65
2021/10/01 09:34:04;;;;;;;6.92;3.37;;;;;;;22.02;28.01;101217.47;1683834;85;21095;-65
2021/10/01 09:36:30;;;;;;;5.08;2.98;;;;;;;22.02;28.01;101217.47;1723133;83;21078;-66
2021/10/01 09:38:57;;;;;;;3.60;2.80;;;;;;;21.20;28.33;101207.83;1666908;85;21604;-66
2021/10/01 09:41:31;;;;;;;4.53;3.15;;;;;;;20.42;29.87;101218.08;1725531;82;21071;-67
2021/10/01 09:44:08;;;;;;;5.00;3.20;;;;;;;19.95;30.94;101213.52;1723323;83;21130;-66
2021/10/01 09:46:45;;;;;;;5.35;3.12;;;;;;;19.61;31.22;101212.34;1742797;82;21034;-66
2021/10/01 09:49:16;;;;;;;5.15;3.80;;;;;;;19.37;31.66;101211.78;1753316;82;21098;-66
2021/10/01 09:51:54;;;;;;;8.93;4.08;;;;;;;19.09;32.56;101211.84;1750061;82;21462;-66
2021/10/01 09:54:24;;;;;;;6.62;4.58;;;;;;;18.64;32.57;101212.55;1745989;82;21014;-65
2021/10/01 09:56:51;;;;;;;6.75;4.25;;;;;;;18.21;34.11;101210.69;1739785;82;20970;-66
2021/10/01 09:59:20;;;;;;;7.78;4.08;;;;;;;18.03;34.40;101208.61;1680327;85;21055;-66
2021/10/01 10:02:13;;;;;;;12.30;7.85;;;;;;;17.82;34.52;101212.84;1738609;82;20979;-66
2021/10/01 10:04:47;;;;;;;8.83;5.85;;;;;;;17.69;35.39;101214.84;1752599;82;21121;-66
2021/10/01 10:07:23;;;;;;;7.28;5.22;;;;;;;17.60;35.74;101205.55;1722932;83;20951;-67
2021/10/01 10:10:07;;;;;;;9.13;5.22;;;;;;;17.43;35.37;101201.47;1723642;83;21486;-67
2021/10/01 10:12:41;;;;;;;16.40;9.90;;;;;;;17.06;35.96;101197.73;1748186;82;21451;-65
2021/10/01 10:15:15;;;;;;;11.83;7.50;;;;;;;16.84;37.24;101195.30;1753409;81;21529;-66
2021/10/01 10:17:47;;;;;;;7.92;6.15;;;;;;;16.69;37.83;101192.02;1741962;82;21086;-66
2021/10/01 10:20:17;;;;;;;9.10;6.40;;;;;;;16.56;39.12;101186.27;1723316;83;21015;-66
2021/10/01 10:22:46;;;;;;;8.80;6.28;;;;;;;16.50;39.18;101190.10;1723111;83;21553;-66
2021/10/01 10:25:12;;;;;;;11.22;6.40;;;;;;;16.42;39.30;101192.30;1718659;83;21043;-67
2021/10/01 10:27:38;;;;;;;8.60;6.62;;;;;;;16.33;39.18;101187.06;1709563;84;21518;-66
2021/10/01 10:30:08;;;;;;;8.05;6.30;;;;;;;16.26;39.23;101187.89;1709644;84;21676;-66
2021/10/01 10:32:34;;;;;;;11.33;7.58;;;;;;;16.23;39.77;101194.48;1689729;84;20991;-66
2021/10/01 10:35:04;;;;;;;17.20;11.75;;;;;;;16.16;39.63;101191.17;1712398;82;21000;-66
2021/10/01 10:37:44;;;;;;;24.15;14.40;;;;;;;16.08;39.95;101189.83;1709361;84;21015;-67
2021/10/01 10:40:16;;;;;;;13.48;9.50;;;;;;;16.05;40.06;101194.46;1709920;82;22659;-66
2021/10/01 10:42:45;;;;;;;8.78;6.58;;;;;;;16.00;40.08;101190.36;1715587;82;21051;-65
2021/10/01 10:45:21;;;;;;;15.60;10.20;;;;;;;15.98;39.95;101182.13;1730227;82;21023;-65
2021/10/01 10:48:04;;;;;;;11.80;7.20;;;;;;;16.00;40.02;101187.61;1737762;82;21079;-66
2021/10/01 10:50:35;;;;;;;9.65;6.85;;;;;;;16.00;40.29;101186.23;1710058;84;21031;-68
2021/10/01 10:53:12;;;;;;;9.23;6.30;;;;;;;16.03;40.03;101184.31;1709695;84;21067;-68
2021/10/01 10:56:00;;;;;;;9.80;7.35;;;;;;;16.04;40.08;101182.39;1710205;83;21062;-66
2021/10/01 10:58:35;;;;;;;11.08;6.90;;;;;;;16.07;40.46;101179.92;1726633;82;21055;-68
2021/10/01 11:01:23;;;;;;;9.38;6.47;;;;;;;16.09;39.67;101178.26;1724021;82;20984;-68
2021/10/01 11:03:59;;;;;;;14.50;6.62;;;;;;;16.05;39.48;101175.81;1717303;82;21004;-67
2021/10/01 11:06:25;;;;;;;8.50;5.97;;;;;;;15.96;39.14;101170.02;1705175;84;21565;-67
2021/10/01 11:09:14;;;;;;;9.10;5.15;;;;;;;15.91;39.95;101168.63;1663068;84;21051;-67
2021/10/01 11:11:42;;;;;;;12.00;6.03;;;;;;;15.88;39.46;101162.31;1710248;82;21696;-67
2021/10/01 11:14:19;;;;;;;8.03;5.08;;;;;;;15.83;40.03;101164.52;1661960;86;21101;-68
2021/10/01 11:16:56;;;;;;;11.30;8.75;;;;;;;15.85;39.38;101155.45;1729997;82;21039;-68
2021/10/01 11:19:49;;;;;;;9.98;6.28;;;;;;;15.83;39.84;101150.80;1731848;82;21047;-67
2021/10/01 11:22:37;;;;;;;9.03;6.60;;;;;;;15.82;39.86;101149.68;1735418;82;21442;-67
2021/10/01 11:25:14;;;;;;;8.13;5.58;;;;;;;15.81;40.50;101157.62;1739240;82;21585;-66
2021/10/01 11:27:58;;;;;;;7.37;5.47;;;;;;;15.85;40.27;101151.33;1739209;82;21043;-67
2021/10/01 11:30:28;;;;;;;9.30;6.62;;;;;;;15.87;40.22;101146.38;1736242;82;21609;-68
2021/10/01 11:32:56;;;;;;;14.20;9.63;;;;;;;15.88;40.47;101149.95;1736604;82;21032;-66
2021/10/01 11:35:23;;;;;;;15.13;9.58;;;;;;;15.87;40.16;101142.84;1718583;82;21067;-67
2021/10/01 11:37:51;;;;;;;6.72;5.05;;;;;;;15.88;40.80;101141.17;1727387;82;21047;-68
2021/10/01 11:40:24;;;;;;;6.28;4.40;;;;;;;15.89;40.05;101136.51;1722176;82;20996;-68
2021/10/01 11:42:57;;;;;;;8.53;5.12;;;;;;;15.84;39.67;101135.12;1714645;82;21047;-67
2021/10/01 11:45:26;;;;;;;8.98;5.28;;;;;;;15.79;39.47;101136.50;1711915;82;21486;-66
2021/10/01 11:48:01;;;;;;;10.05;5.17;;;;;;;15.75;39.33;101127.98;1661031;86;21102;-66
2021/10/01 11:50:44;;;;;;;8.70;5.03;;;;;;;15.74;39.91;101129.61;1715623;82;21087;-67
2021/10/01 11:53:24;;;;;;;9.55;6.20;;;;;;;15.75;40.11;101120.29;1733259;82;21077;-67
2021/10/01 11:56:02;;;;;;;11.00;7.55;;;;;;;15.79;39.83;101125.52;1716428;82;21028;-67
2021/10/01 11:58:31;;;;;;;13.22;7.62;;;;;;;15.77;38.98;101124.95;1737203;82;21032;-68
2021/10/01 12:01:16;;;;;;;9.48;5.53;;;;;;;15.71;39.46;101126.05;1726010;82;20991;-69
2021/10/01 12:03:51;;;;;;;7.83;5.30;;;;;;;15.67;39.62;101119.45;1726575;82;21593;-68
2021/10/01 12:06:25;;;;;;;7.95;4.62;;;;;;;15.63;39.60;101118.34;1729591;82;21521;-67
2021/10/01 12:09:03;;;;;;;8.70;4.75;;;;;;;15.63;39.47;101111.47;1646965;86;21098;-67
2021/10/01 12:11:40;;;;;;;8.68;5.40;;;;;;;15.62;39.57;101122.20;1710958;82;21082;-67
2021/10/01 12:14:11;;;;;;;10.03;5.35;;;;;;;15.63;40.12;101112.84;1738136;82;21078;-68
2021/10/01 12:16:39;;;;;;;9.10;5.85;;;;;;;15.66;40.14;101113.70;1739054;82;21566;-69
2021/10/01 12:19:08;;;;;;;7.97;4.62;;;;;;;15.67;39.88;101118.91;1738984;82;21573;-68
2021/10/01 12:21:35;;;;;;;10.08;4.83;;;;;;;15.65;40.04;101108.76;1738988;82;21539;-66
2021/10/01 12:24:10;;;;;;;;;;;;;;;15.65;40.48;101108.76;1739407;82;21036;-68
2021/10/01 12:26:42;;;;;;;7.40;4.05;;;;;;;15.68;40.28;101113.70;1746326;81;20410;-66
2021/10/01 12:29:18;;;;;;;10.55;4.20;;;;;;;15.60;40.02;101107.91;1753175;82;21022;-67
2021/10/01 12:31:55;;;;;;;8.03;3.58;;;;;;;15.58;40.01;101105.45;1750871;82;21019;-66
2021/10/01 12:34:30;;;;;;;7.97;4.10;;;;;;;15.58;40.01;101097.77;1753217;82;21062;-68
2021/10/01 12:37:01;;;;;;;14.53;9.28;;;;;;;15.56;40.39;101099.94;1752956;82;21604;-67
2021/10/01 12:40:16;;;;;;;38.25;25.45;;;;;;;15.61;40.04;101096.67;1880092;75;22709;-65
2021/10/01 12:42:43;;;;;;;12.40;7.80;;;;;;;15.57;39.76;101097.48;1879683;76;21054;-65
2021/10/01 12:45:14;;;;;;;;;;;;;;;15.54;40.05;101092.53;1842465;77;21062;-67
2021/10/01 12:47:46;;;;;;;6.42;4.50;;;;;;;15.53;40.32;101090.87;1828520;77;20133;-67
2021/10/01 12:50:31;;;;;;;11.88;5.75;;;;;;;15.43;40.30;101096.60;1829010;78;21524;-66
2021/10/01 12:53:00;;;;;;;7.92;4.92;;;;;;;15.41;40.30;101100.14;1830130;78;21034;-66
2021/10/01 12:55:28;;;;;;;7.67;4.42;;;;;;;15.37;40.34;101093.55;1827213;78;20953;-66
2021/10/01 12:57:54;;;;;;;7.12;3.95;;;;;;;15.34;40.59;101095.47;1826318;77;21422;-66
2021/10/01 13:00:33;;;;;;;7.05;4.00;;;;;;;15.32;40.41;101097.67;1828134;78;20962;-67
2021/10/01 13:03:08;;;;;;;6.00;4.00;;;;;;;15.30;40.40;101088.06;1817972;77;21093;-67
2021/10/01 13:05:40;;;;;;;8.70;3.87;;;;;;;15.27;40.46;101093.52;1844171;77;21459;-68
2021/10/01 13:08:13;;;;;;;9.65;3.72;;;;;;;15.25;40.49;101089.41;1828162;77;21048;-68